createdAt,value
2023-03-17T00:04:49.420Z,100416.66
2023-03-17T00:09:51.170Z,100418.47
2023-03-17T00:14:52.805Z,100418.66
2023-03-17T00:19:54.722Z,100414.16
2023-03-17T00:24:56.742Z,100402.34
2023-03-17T00:29:58.356Z,100404.13
2023-03-17T00:35:00.312Z,100392.94
2023-03-17T00:40:02.260Z,100407.97
2023-03-17T00:45:04.719Z,100422.59
2023-03-17T00:50:10.153Z,100447.44
2023-03-17T00:55:12.744Z,100454.53
2023-03-17T01:00:34.698Z,100450.66
2023-03-17T01:05:36.247Z,100435.31
2023-03-17T01:10:38.111Z,100438.53
2023-03-17T01:15:42.679Z,100430.28
2023-03-17T01:20:44.560Z,100435.50
2023-03-17T01:25:46.626Z,100425.00
2023-03-17T01:30:48.621Z,100416.41
2023-03-17T01:35:50.880Z,100405.75
2023-03-17T01:40:52.718Z,100395.91
2023-03-17T01:46:22.133Z,100377.72
2023-03-17T01:51:35.841Z,100364.22
2023-03-17T01:56:40.852Z,100366.84
2023-03-17T02:01:47.392Z,100370.19
2023-03-17T02:06:58.050Z,100369.72
2023-03-17T02:12:02.357Z,100350.19
2023-03-17T02:17:04.139Z,100338.47
2023-03-17T02:22:05.982Z,100344.78
2023-03-17T02:27:17.902Z,100343.53
2023-03-17T02:32:20.802Z,100335.84
2023-03-17T02:37:22.523Z,100329.53
2023-03-17T02:42:24.570Z,100315.38
2023-03-17T02:47:26.063Z,100316.31
2023-03-17T02:52:27.628Z,100331.25
2023-03-17T02:57:29.361Z,100327.06
2023-03-17T03:02:30.913Z,100326.94
2023-03-17T03:07:32.989Z,100329.91
2023-03-17T03:12:34.822Z,100342.16
2023-03-17T03:17:36.539Z,100346.41
2023-03-17T03:22:38.146Z,100343.34
2023-03-17T03:27:40.082Z,100329.00
2023-03-17T03:32:41.741Z,100332.66
2023-03-17T03:37:43.399Z,100329.94
2023-03-17T03:42:45.088Z,100324.72
2023-03-17T03:47:46.861Z,100318.97
2023-03-17T03:52:48.849Z,100312.78
2023-03-17T03:57:50.840Z,100324.66
2023-03-17T04:02:52.953Z,100330.34
2023-03-17T04:07:55.312Z,100336.31
2023-03-17T04:12:57.129Z,100333.31
2023-03-17T04:17:58.986Z,100333.31
2023-03-17T04:23:00.814Z,100324.56
2023-03-17T04:28:02.427Z,100335.56
2023-03-17T04:33:03.983Z,100330.22
2023-03-17T04:38:05.579Z,100337.59
2023-03-17T04:43:07.272Z,100347.84
2023-03-17T04:48:08.788Z,100334.50
2023-03-17T04:53:10.294Z,100332.56
2023-03-17T04:58:21.081Z,100320.16
2023-03-17T05:03:30.646Z,100313.47
2023-03-17T05:08:32.177Z,100319.47
2023-03-17T05:13:34.089Z,100321.09
2023-03-17T05:18:43.765Z,100328.06
2023-03-17T05:23:45.573Z,100322.03
2023-03-17T05:28:47.604Z,100338.38
2023-03-17T05:33:49.448Z,100319.91
2023-03-17T05:38:51.460Z,100323.59
2023-03-17T05:43:53.329Z,100320.47
2023-03-17T05:48:55.157Z,100325.59
2023-03-17T05:53:56.717Z,100313.09
2023-03-17T05:58:58.355Z,100305.09
2023-03-17T06:03:59.857Z,100297.72
2023-03-17T06:09:01.766Z,100310.22
2023-03-17T06:14:03.534Z,100324.66
2023-03-17T06:19:05.039Z,100335.59
2023-03-17T06:24:07.571Z,100327.53
2023-03-17T06:29:09.406Z,100329.34
2023-03-17T06:34:10.962Z,100324.97
2023-03-17T06:39:13.836Z,100314.25
2023-03-17T06:44:15.382Z,100309.75
2023-03-17T06:49:16.988Z,100312.28
2023-03-17T06:54:18.638Z,100310.16
2023-03-17T06:59:21.942Z,100326.44
2023-03-17T07:04:23.579Z,100328.25
2023-03-17T07:09:25.464Z,100317.06
2023-03-17T07:14:27.382Z,100325.50
2023-03-17T07:19:29.790Z,100336.09
2023-03-17T07:24:32.015Z,100322.50
2023-03-17T07:29:53.860Z,100309.34
2023-03-17T07:34:55.697Z,100313.06
2023-03-17T07:39:57.370Z,100306.59
2023-03-17T07:44:58.971Z,100314.47
2023-03-17T07:50:00.492Z,100308.00
2023-03-17T07:55:02.037Z,100313.81
2023-03-17T08:00:05.506Z,100298.44
2023-03-17T08:05:15.397Z,100290.38
2023-03-17T08:10:17.102Z,100295.47
2023-03-17T08:15:19.265Z,100300.53
2023-03-17T08:20:21.184Z,100307.44
2023-03-17T08:25:22.774Z,100305.38
2023-03-17T08:30:24.405Z,100308.91
2023-03-17T08:35:25.995Z,100307.81
2023-03-17T08:40:27.628Z,100316.75
2023-03-17T08:45:29.651Z,100302.28
2023-03-17T08:50:31.912Z,100299.59
2023-03-17T08:55:33.710Z,100302.94
2023-03-17T09:00:35.231Z,100290.75
2023-03-17T09:05:38.469Z,100293.47
2023-03-17T09:10:42.559Z,100295.56
2023-03-17T09:15:46.121Z,100292.50
2023-03-17T09:20:47.864Z,100312.34
2023-03-17T09:25:49.566Z,100318.47
2023-03-17T09:30:51.427Z,100322.31
2023-03-17T09:35:53.411Z,100311.16
2023-03-17T09:41:13.883Z,100310.22
2023-03-17T09:46:39.637Z,100299.63
2023-03-17T09:51:44.874Z,100285.94
2023-03-17T09:56:55.000Z,100291.56
2023-03-17T10:01:57.167Z,100288.13
2023-03-17T10:07:04.974Z,100300.78
2023-03-17T10:12:14.378Z,100300.31
2023-03-17T10:17:21.750Z,100314.56
2023-03-17T10:22:41.629Z,100294.13
2023-03-17T10:27:48.695Z,100304.38
2023-03-17T10:32:52.570Z,100285.72
2023-03-17T10:38:07.938Z,100292.34
2023-03-17T10:43:20.011Z,100287.28
2023-03-17T10:48:21.652Z,100287.25
2023-03-17T10:53:25.176Z,100277.31
2023-03-17T10:58:38.103Z,100275.16
2023-03-17T11:03:40.134Z,100260.16
2023-03-17T11:08:55.027Z,100265.22
2023-03-17T11:14:14.919Z,100262.94
2023-03-17T11:19:17.840Z,100270.03
2023-03-17T11:24:28.300Z,100261.06
2023-03-17T11:29:35.628Z,100243.31
2023-03-17T11:34:52.398Z,100233.06
2023-03-17T11:40:15.114Z,100233.53
2023-03-17T11:45:23.650Z,100224.13
2023-03-17T11:50:54.698Z,100218.75
2023-03-17T11:56:18.271Z,100221.34
2023-03-17T12:01:26.605Z,100217.84
2023-03-17T12:06:32.442Z,100213.66
2023-03-17T12:11:38.631Z,100215.31
2023-03-17T12:16:47.238Z,100218.88
2023-03-17T12:22:01.377Z,100219.72
2023-03-17T12:27:05.878Z,100224.06
2023-03-17T12:32:16.233Z,100226.47
2023-03-17T12:37:19.493Z,100210.59
2023-03-17T12:42:50.927Z,100199.34
2023-03-17T12:48:13.501Z,100201.13
2023-03-17T12:53:20.927Z,100188.44
2023-03-17T12:58:45.932Z,100181.91
2023-03-17T13:03:58.461Z,100173.34
2023-03-17T13:09:33.277Z,100171.78
2023-03-17T13:14:44.905Z,100167.31
2023-03-17T13:20:07.928Z,100160.44
2023-03-17T13:25:38.367Z,100162.47
2023-03-17T13:30:40.262Z,100161.53
2023-03-17T13:36:06.078Z,100152.84
2023-03-17T13:41:13.255Z,100156.31
2023-03-17T13:46:26.740Z,100154.84
2023-03-17T13:51:33.477Z,100160.72
2023-03-17T13:56:41.031Z,100159.63
2023-03-17T14:02:23.075Z,100155.41
2023-03-17T14:07:31.867Z,100170.97
2023-03-17T14:12:44.017Z,100158.94
2023-03-17T14:18:15.341Z,100145.81
2023-03-17T14:23:18.111Z,100155.34
2023-03-17T14:28:26.540Z,100147.06
2023-03-17T14:33:30.596Z,100139.41
2023-03-17T14:38:35.728Z,100134.44
2023-03-17T14:43:37.293Z,100135.88
2023-03-17T14:48:41.769Z,100149.06
2023-03-17T14:53:44.196Z,100152.34
2023-03-17T14:58:48.821Z,100163.66
2023-03-17T15:03:56.701Z,100146.41
2023-03-17T15:08:59.552Z,100158.09
2023-03-17T15:14:30.105Z,100153.03
2023-03-17T15:19:43.382Z,100153.84
2023-03-17T15:24:45.055Z,100146.38
2023-03-17T15:29:46.571Z,100164.13
2023-03-17T15:34:49.904Z,100157.03
2023-03-17T15:39:52.152Z,100164.53
2023-03-17T15:44:54.323Z,100178.69
2023-03-17T15:49:59.427Z,100172.22
2023-03-17T15:55:00.945Z,100156.38
2023-03-17T16:00:02.653Z,100120.00
2023-03-17T16:05:19.452Z,100121.28
2023-03-17T16:10:33.382Z,100126.81
2023-03-17T16:15:39.251Z,100120.84
2023-03-17T16:20:43.464Z,100192.19
2023-03-17T16:25:46.250Z,100185.69
2023-03-17T16:30:49.906Z,100174.56
2023-03-17T16:35:52.810Z,100164.94
2023-03-17T16:40:58.589Z,100168.81
2023-03-17T16:46:02.369Z,100156.19
2023-03-17T16:51:05.158Z,100132.84
2023-03-17T16:56:15.519Z,100158.59
2023-03-17T17:01:21.503Z,100181.75
2023-03-17T17:06:24.270Z,100183.91
2023-03-17T17:11:25.887Z,100169.44
2023-03-17T17:16:33.492Z,100186.38
2023-03-17T17:21:35.203Z,100183.16
2023-03-17T17:26:36.731Z,100184.69
2023-03-17T17:31:38.681Z,100208.50
2023-03-17T17:36:40.718Z,100183.22
2023-03-17T17:41:42.372Z,100160.75
2023-03-17T17:46:43.982Z,100173.13
2023-03-17T17:51:45.759Z,100174.22
2023-03-17T17:56:47.727Z,100165.47
2023-03-17T18:01:49.472Z,100215.38
2023-03-17T18:06:51.820Z,100232.75
2023-03-17T18:11:53.717Z,100233.75
2023-03-17T18:16:55.382Z,100217.63
2023-03-17T18:21:57.042Z,100223.34
2023-03-17T18:26:58.563Z,100240.63
2023-03-17T18:32:00.254Z,100249.31
2023-03-17T18:37:02.106Z,100258.69
2023-03-17T18:42:03.791Z,100266.19
2023-03-17T18:47:05.720Z,100247.38
2023-03-17T18:52:07.267Z,100246.56
2023-03-17T18:57:08.851Z,100231.34
2023-03-17T19:02:10.370Z,100241.38
2023-03-17T19:07:13.230Z,100241.66
2023-03-17T19:12:14.834Z,100234.59
2023-03-17T19:17:16.404Z,100245.38
2023-03-17T19:22:18.251Z,100238.31
2023-03-17T19:27:19.820Z,100239.53
2023-03-17T19:32:21.354Z,100234.59
2023-03-17T19:37:22.865Z,100229.78
2023-03-17T19:42:24.512Z,100241.94
2023-03-17T19:47:26.090Z,100231.09
2023-03-17T19:52:27.652Z,100233.41
2023-03-17T19:57:29.306Z,100240.91
2023-03-17T20:02:30.862Z,100245.44
2023-03-17T20:07:32.654Z,100250.81
2023-03-17T20:12:34.855Z,100251.81
2023-03-17T20:17:36.535Z,100268.19
2023-03-17T20:22:38.467Z,100268.41
2023-03-17T20:27:40.231Z,100292.03
2023-03-17T20:32:41.864Z,100298.50
2023-03-17T20:37:43.459Z,100310.44
2023-03-17T20:42:45.105Z,100316.66
2023-03-17T20:47:46.986Z,100321.09
2023-03-17T20:52:49.684Z,100293.31
2023-03-17T20:57:51.183Z,100290.84
2023-03-17T21:02:52.766Z,100293.03
2023-03-17T21:07:54.404Z,100289.00
2023-03-17T21:12:55.895Z,100289.84
2023-03-17T21:17:57.429Z,100274.25
2023-03-17T21:22:59.043Z,100281.91
2023-03-17T21:28:01.731Z,100278.47
2023-03-17T21:33:04.692Z,100280.56
2023-03-17T21:38:07.960Z,100280.56
2023-03-17T21:43:10.059Z,100276.91
2023-03-17T21:48:11.641Z,100287.44
2023-03-17T21:53:13.874Z,100282.41
2023-03-17T21:58:16.696Z,100284.03
2023-03-17T22:03:19.694Z,100295.13
2023-03-17T22:08:21.730Z,100305.16
2023-03-17T22:13:24.899Z,100295.03
2023-03-17T22:18:26.445Z,100295.88
2023-03-17T22:23:27.990Z,100292.63
2023-03-17T22:28:29.621Z,100291.41
2023-03-17T22:33:31.252Z,100299.69
2023-03-17T22:38:32.822Z,100294.44
2023-03-17T22:43:35.500Z,100300.06
2023-03-17T22:48:37.315Z,100304.69
2023-03-17T22:53:40.770Z,100313.97
2023-03-17T22:58:44.441Z,100314.81
2023-03-17T23:03:47.383Z,100318.66
2023-03-17T23:08:51.541Z,100322.88
2023-03-17T23:13:54.791Z,100315.44
2023-03-17T23:18:56.927Z,100312.44
2023-03-17T23:24:00.184Z,100314.66
2023-03-17T23:29:03.340Z,100315.66
2023-03-17T23:34:07.062Z,100314.66
2023-03-17T23:39:09.770Z,100326.50
2023-03-17T23:44:12.771Z,100341.03
2023-03-17T23:49:14.405Z,100329.34
2023-03-17T23:54:16.074Z,100327.56
2023-03-17T23:59:17.948Z,100316.22
